KLVM/LVM METAR and TAF weather

Enter ICAO airport designator
Station Type Date Time Source
KLVM METAR 2022/06/29 23:53 UTC NOAA

KLVM 292353Z AUTO 25017G22KT 10SM CLR 28/00 A2996 RMK AO2 PK WND 26026/2320 SLP099 T02780000 10289 20244 53004


Station Type Date Time Source
KLVM Decoded METAR 2022/06/29 23:53 UTC NOAA

LIVINGSTON MISSION FIELD, MT, United States (KLVM) 45-42N 110-26W 1418M
Jun 29, 2022 - 07:53 PM EDT / 2022.06.29 2353 UTC
Wind: from the WSW (250 degrees) at 20 MPH (17 KT) gusting to 25 MPH (22 KT):0
Visibility: 10 mile(s):0
Sky conditions: clear
Temperature: 82.0 F (27.8 C)
Dew Point: 32.0 F (0.0 C)
Relative Humidity: 16%
Pressure (altimeter): 29.96 in. Hg (1014 hPa)
Pressure tendency: 0.01 inches (0.4 hPa) higher than three hours ago
ob: KLVM 292353Z AUTO 25017G22KT 10SM CLR 28/00 A2996 RMK AO2 PK WND 26026/2320 SLP099 T02780000 10289 20244 53004
cycle: 0

Station Type Date Time Source
KLVM TAF 2022/06/29 18:42 UTC NOAA

TAF KLVM 291739Z 2918/3018 29014G22KT P6SM SCT100
FM300400 27010KT P6SM FEW100 SCT200

Example: see airport list